Time;durP1;ratioP1;P1;durP2;ratioP2;P2;SDS_P1;SDS_P2;PMS_P1;PMS_P2;Temp;Humidity;BMP_temperature;BMP_pressure;BME280_temperature;BME280_humidity;BME280_pressure;Samples;Min_cycle;Max_cycle;Signal;HPM_P1;HPM_P2
2023/01/17 00:02:14;;;;;;;63.20;26.40;;;2.20;99.90;;;;;;4443628;28;658602;-71
2023/01/17 00:11:10;;;;;;;66.27;28.47;;;2.30;99.90;;;;;;4394939;28;657912;-71
2023/01/17 00:13:59;;;;;;;62.47;27.77;;;2.30;99.90;;;;;;4440408;28;658655;-71
2023/01/17 00:16:46;;;;;;;56.77;23.53;;;2.30;99.90;;;;;;4415920;28;658159;-71
2023/01/17 00:26:04;;;;;;;61.57;24.53;;;2.50;99.90;;;;;;4417704;28;657833;-71
2023/01/17 01:34:50;;;;;;;45.87;19.90;;;2.50;99.90;;;;;;4411249;28;657705;-71
2023/01/17 01:37:37;;;;;;;52.57;21.63;;;2.50;99.90;;;;;;4448113;28;657562;-71
2023/01/17 01:40:25;;;;;;;47.00;21.57;;;2.50;99.90;;;;;;4436602;28;657660;-71
2023/01/17 01:43:15;;;;;;;45.60;20.97;;;2.50;99.90;;;;;;4442638;28;657524;-71
2023/01/17 01:46:02;;;;;;;42.03;20.23;;;2.50;99.90;;;;;;4414359;28;657922;-71
2023/01/17 01:48:51;;;;;;;35.83;17.63;;;2.40;99.90;;;;;;4435414;28;657478;-71
2023/01/17 01:51:39;;;;;;;37.93;16.90;;;2.40;99.90;;;;;;4420276;28;657641;-71
2023/01/17 01:54:29;;;;;;;37.60;17.13;;;2.40;99.90;;;;;;4417702;28;657988;-71
2023/01/17 01:57:17;;;;;;;34.63;16.90;;;2.40;99.90;;;;;;4422458;28;657447;-72
2023/01/17 02:00:10;;;;;;;41.00;18.20;;;2.40;99.90;;;;;;4434532;28;657507;-71
2023/01/17 02:02:58;;;;;;;45.53;20.58;;;2.40;99.90;;;;;;4415775;28;658210;-71
2023/01/17 02:05:46;;;;;;;32.00;15.83;;;2.40;99.90;;;;;;4418936;28;658278;-71
2023/01/17 02:08:33;;;;;;;37.37;17.30;;;2.50;99.90;;;;;;4444291;28;658519;-71
2023/01/17 02:11:20;;;;;;;43.50;19.53;;;2.40;99.90;;;;;;4426020;28;657949;-71
2023/01/17 02:14:08;;;;;;;32.57;16.17;;;2.30;99.90;;;;;;4446675;28;658650;-71
2023/01/17 02:17:04;;;;;;;39.03;16.88;;;2.30;99.90;;;;;;4426861;28;657702;-71
2023/01/17 02:20:21;;;;;;;41.60;17.83;;;2.10;99.90;;;;;;4397993;28;658203;-71
2023/01/17 02:23:38;;;;;;;33.77;15.43;;;2.00;99.90;;;;;;4415954;28;657642;-71
2023/01/17 02:27:01;;;;;;;31.37;14.97;;;1.90;99.90;;;;;;4394052;28;657517;-71
2023/01/17 02:30:19;;;;;;;32.13;14.90;;;1.80;99.90;;;;;;4416164;28;658124;-71
2023/01/17 02:33:14;;;;;;;33.30;14.60;;;1.70;99.90;;;;;;4396859;28;658210;-71
2023/01/17 02:36:05;;;;;;;35.37;16.30;;;1.60;99.90;;;;;;4413526;28;657646;-71
2023/01/17 02:38:57;;;;;;;31.98;14.65;;;1.50;99.90;;;;;;4423888;28;658764;-71
2023/01/17 02:41:48;;;;;;;35.93;15.67;;;1.40;99.90;;;;;;4437774;28;657371;-71
2023/01/17 02:44:43;;;;;;;28.20;12.90;;;1.30;99.90;;;;;;4416961;28;657895;-71
2023/01/17 02:47:34;;;;;;;31.97;15.03;;;1.20;99.90;;;;;;4401269;28;657737;-71
2023/01/17 02:50:28;;;;;;;29.20;13.47;;;1.10;99.90;;;;;;4424174;28;658136;-71
2023/01/17 02:53:30;;;;;;;27.33;13.50;;;1.00;99.90;;;;;;4397198;28;657656;-71
2023/01/17 02:56:22;;;;;;;24.57;11.10;;;0.90;99.90;;;;;;4390448;28;658524;-71
2023/01/17 02:59:14;;;;;;;23.63;11.10;;;0.80;99.90;;;;;;4411608;28;657829;-71
2023/01/17 03:02:10;;;;;;;25.17;12.17;;;0.70;99.90;;;;;;4413024;28;657731;-71
2023/01/17 03:05:00;;;;;;;24.20;11.60;;;0.70;99.90;;;;;;4418362;28;658050;-71
2023/01/17 03:07:52;;;;;;;28.33;12.65;;;0.60;99.90;;;;;;4419844;28;658212;-71
2023/01/17 03:10:39;;;;;;;25.27;11.63;;;0.50;99.90;;;;;;4413026;28;658023;-71
2023/01/17 03:13:27;;;;;;;27.87;11.80;;;0.50;99.90;;;;;;4414629;28;657616;-71
2023/01/17 03:16:15;;;;;;;23.63;12.03;;;0.40;99.90;;;;;;4437942;28;657771;-70
2023/01/17 03:19:02;;;;;;;25.50;12.17;;;0.40;99.90;;;;;;4412854;28;658622;-71
2023/01/17 03:21:50;;;;;;;27.33;12.77;;;0.30;99.90;;;;;;4434230;28;657901;-71
2023/01/17 03:24:39;;;;;;;23.00;12.07;;;0.30;99.90;;;;;;4434976;28;658712;-71
2023/01/17 03:27:26;;;;;;;30.77;12.53;;;0.20;99.90;;;;;;4419261;28;657988;-70
2023/01/17 03:30:14;;;;;;;26.10;12.63;;;0.10;99.90;;;;;;4435874;28;658177;-71
2023/01/17 03:33:02;;;;;;;27.17;14.03;;;0.10;99.90;;;;;;4418613;28;658487;-70
2023/01/17 03:35:49;;;;;;;27.07;12.97;;;0.00;99.90;;;;;;4434825;28;658139;-70
2023/01/17 03:38:37;;;;;;;28.15;13.77;;;-0.10;99.90;;;;;;4416095;28;658064;-70
2023/01/17 03:41:25;;;;;;;25.87;12.10;;;-0.10;99.90;;;;;;4432898;28;658655;-70
2023/01/17 03:44:13;;;;;;;22.73;12.23;;;-0.20;99.90;;;;;;4408074;28;659612;-70
2023/01/17 03:47:00;;;;;;;27.83;13.37;;;-0.20;99.90;;;;;;4431357;28;658852;-70
2023/01/17 03:49:47;;;;;;;18.30;9.67;;;-0.10;99.90;;;;;;4440823;28;659337;-70
2023/01/17 03:52:35;;;;;;;22.83;11.10;;;-0.20;99.90;;;;;;4428363;28;657593;-70
2023/01/17 03:55:22;;;;;;;25.63;12.57;;;-0.20;99.90;;;;;;4438992;28;659219;-70
2023/01/17 03:58:12;;;;;;;26.03;11.77;;;-0.20;99.90;;;;;;4433333;28;659118;-70
2023/01/17 04:00:59;;;;;;;26.07;11.83;;;-0.20;99.90;;;;;;4445109;28;658791;-70
2023/01/17 04:03:46;;;;;;;22.83;11.43;;;-0.20;99.90;;;;;;4428223;28;658073;-71
2023/01/17 04:06:33;;;;;;;24.20;12.00;;;-0.30;99.90;;;;;;4445654;28;659471;-71
2023/01/17 04:09:20;;;;;;;33.97;15.30;;;-0.30;99.90;;;;;;4419982;28;660005;-71
2023/01/17 04:12:08;;;;;;;33.13;17.70;;;-0.40;99.90;;;;;;4403438;28;659728;-70
2023/01/17 04:14:57;;;;;;;35.13;16.80;;;-0.40;99.90;;;;;;4241938;28;658891;-70
2023/01/17 04:17:44;;;;;;;26.97;13.47;;;-0.50;99.90;;;;;;4267048;28;658396;-70
2023/01/17 04:20:32;;;;;;;25.30;13.07;;;-0.50;99.90;;;;;;4419159;28;661409;-71
2023/01/17 04:23:20;;;;;;;31.33;13.37;;;-0.50;99.90;;;;;;4432791;28;659083;-71
2023/01/17 04:26:08;;;;;;;27.90;12.23;;;-0.50;99.90;;;;;;4439518;28;659172;-71
2023/01/17 04:28:55;;;;;;;21.33;10.87;;;-0.50;99.90;;;;;;4417869;28;659191;-71
2023/01/17 04:31:45;;;;;;;25.03;11.83;;;-0.50;99.90;;;;;;4435500;28;659730;-71
2023/01/17 04:34:32;;;;;;;27.93;13.90;;;-0.50;99.90;;;;;;4412063;28;659609;-71
2023/01/17 04:37:19;;;;;;;27.70;13.57;;;-0.50;99.90;;;;;;4438934;28;658684;-71
2023/01/17 04:40:08;;;;;;;28.47;14.23;;;-0.40;99.90;;;;;;4412195;28;658814;-71
2023/01/17 04:42:56;;;;;;;31.10;14.23;;;-0.40;99.90;;;;;;4430694;28;658451;-71
2023/01/17 04:45:43;;;;;;;37.07;18.07;;;-0.40;99.90;;;;;;4443557;28;658648;-71
2023/01/17 04:48:32;;;;;;;36.37;17.83;;;-0.40;99.90;;;;;;4419973;28;658332;-70
2023/01/17 04:51:19;;;;;;;42.37;21.37;;;-0.40;99.90;;;;;;4440325;28;658516;-71
2023/01/17 04:54:06;;;;;;;38.33;17.23;;;-0.40;99.90;;;;;;4418646;28;658727;-71
2023/01/17 04:56:54;;;;;;;39.77;20.73;;;-0.40;99.90;;;;;;4442260;28;659045;-70
2023/01/17 04:59:41;;;;;;;38.30;18.30;;;-0.40;99.90;;;;;;4422199;28;658765;-70
2023/01/17 05:02:28;;;;;;;38.53;18.10;;;-0.40;99.90;;;;;;4438859;28;659750;-70
2023/01/17 05:05:17;;;;;;;42.30;19.23;;;-0.40;99.90;;;;;;4426338;28;658553;-71
2023/01/17 05:08:04;;;;;;;45.17;21.70;;;-0.30;99.90;;;;;;4437829;28;658494;-70
2023/01/17 05:10:51;;;;;;;57.90;28.37;;;-0.30;99.90;;;;;;4417663;28;658348;-71
2023/01/17 05:13:39;;;;;;;67.27;31.80;;;-0.30;99.90;;;;;;4440854;28;659583;-71
2023/01/17 05:16:26;;;;;;;57.97;29.13;;;-0.30;99.90;;;;;;4414233;28;658723;-70
2023/01/17 05:19:13;;;;;;;40.13;18.00;;;-0.30;99.90;;;;;;4438953;28;658987;-70
2023/01/17 05:22:13;;;;;;;42.40;19.80;;;-0.30;99.90;;;;;;4419024;28;658992;-70
2023/01/17 05:25:00;;;;;;;44.77;22.13;;;-0.30;99.90;;;;;;4400044;28;658919;-70
2023/01/17 05:27:48;;;;;;;39.50;19.87;;;-0.20;99.90;;;;;;4441936;28;659459;-70
2023/01/17 05:30:35;;;;;;;33.80;17.07;;;-0.20;99.90;;;;;;4425192;28;658922;-70
2023/01/17 05:33:22;;;;;;;32.50;14.50;;;-0.20;99.90;;;;;;4434966;28;659141;-70
2023/01/17 05:36:10;;;;;;;32.27;15.50;;;-0.10;99.90;;;;;;4437897;28;659132;-70
2023/01/17 05:38:59;;;;;;;32.20;16.10;;;0.00;99.90;;;;;;4442454;28;659469;-70
2023/01/17 05:41:46;;;;;;;34.37;15.67;;;0.00;99.90;;;;;;4423060;28;658624;-70
2023/01/17 05:44:33;;;;;;;92.87;28.67;;;0.10;99.90;;;;;;4438954;28;657272;-70
2023/01/17 05:47:21;;;;;;;66.20;24.30;;;0.20;99.90;;;;;;4421909;28;657902;-70
2023/01/17 05:50:09;;;;;;;72.40;29.00;;;0.20;99.90;;;;;;4435541;28;658617;-70
2023/01/17 05:52:57;;;;;;;262.03;91.00;;;0.30;99.90;;;;;;4419852;28;657465;-70
2023/01/17 05:55:48;;;;;;;191.47;78.50;;;0.30;99.90;;;;;;4433472;28;659451;-70
2023/01/17 05:58:35;;;;;;;74.07;32.92;;;0.40;99.90;;;;;;4417221;28;659051;-70
2023/01/17 06:01:23;;;;;;;49.07;23.40;;;0.50;99.90;;;;;;4438470;28;658282;-70
2023/01/17 06:04:10;;;;;;;43.80;20.87;;;0.60;99.90;;;;;;4421107;28;657460;-70
2023/01/17 06:06:57;;;;;;;76.40;33.37;;;0.70;99.90;;;;;;4430437;28;659018;-70
2023/01/17 06:09:45;;;;;;;42.27;20.47;;;0.70;99.90;;;;;;4436905;28;658862;-69
2023/01/17 06:12:34;;;;;;;68.70;30.67;;;0.80;99.90;;;;;;4431699;28;658337;-70
2023/01/17 06:15:21;;;;;;;24.27;11.33;;;0.80;99.90;;;;;;4422048;28;657934;-70
2023/01/17 06:18:09;;;;;;;38.80;19.13;;;0.80;99.90;;;;;;4448981;28;658038;-69
2023/01/17 06:20:57;;;;;;;40.70;20.67;;;0.90;99.90;;;;;;4419478;28;658853;-70
2023/01/17 06:23:44;;;;;;;26.37;13.77;;;0.90;99.90;;;;;;4439442;28;657670;-70
2023/01/17 06:26:31;;;;;;;26.05;13.32;;;1.00;99.90;;;;;;4422509;28;657739;-70
2023/01/17 06:29:20;;;;;;;31.73;15.97;;;1.00;99.90;;;;;;4445978;28;658185;-70
2023/01/17 06:32:07;;;;;;;23.90;12.43;;;1.10;99.90;;;;;;4424981;28;658294;-69
2023/01/17 06:34:54;;;;;;;24.10;12.27;;;1.10;99.90;;;;;;4434496;28;657850;-69
2023/01/17 06:37:42;;;;;;;24.50;12.10;;;1.00;99.90;;;;;;4415792;28;658376;-70
2023/01/17 06:40:29;;;;;;;24.37;12.70;;;1.10;99.90;;;;;;4438285;28;657668;-69
2023/01/17 06:43:17;;;;;;;21.67;12.10;;;1.10;99.90;;;;;;4413514;28;657809;-69
2023/01/17 06:46:05;;;;;;;19.40;11.53;;;1.10;99.90;;;;;;4436165;28;657927;-69
2023/01/17 06:48:53;;;;;;;19.77;10.97;;;1.10;99.90;;;;;;4415567;28;658152;-70
2023/01/17 06:51:40;;;;;;;18.77;8.70;;;1.10;99.90;;;;;;4428968;28;657848;-70
2023/01/17 06:54:28;;;;;;;17.47;7.40;;;1.00;99.90;;;;;;4437080;28;657970;-70
2023/01/17 06:57:15;;;;;;;13.60;7.27;;;1.10;99.90;;;;;;4435291;28;656421;-70
2023/01/17 07:00:03;;;;;;;11.50;6.03;;;1.10;99.90;;;;;;4445097;28;656870;-70
2023/01/17 07:02:52;;;;;;;12.77;6.83;;;1.10;99.90;;;;;;4418632;28;656909;-70
2023/01/17 07:05:40;;;;;;;11.83;6.37;;;1.10;99.90;;;;;;4441514;28;656706;-70
2023/01/17 07:08:27;;;;;;;14.90;6.20;;;1.10;99.90;;;;;;4419517;28;657075;-69
2023/01/17 07:11:14;;;;;;;14.57;6.63;;;1.10;99.90;;;;;;4437591;28;657134;-70
2023/01/17 07:14:02;;;;;;;11.80;6.30;;;1.20;99.90;;;;;;4420583;28;656419;-70
2023/01/17 07:16:49;;;;;;;13.53;7.70;;;1.20;99.90;;;;;;4443107;28;656553;-69
2023/01/17 07:19:37;;;;;;;15.00;7.33;;;1.20;99.90;;;;;;4416384;28;656954;-70
2023/01/17 07:22:25;;;;;;;16.13;7.80;;;1.30;99.90;;;;;;4433771;28;656601;-69
2023/01/17 07:25:12;;;;;;;16.03;8.43;;;1.30;99.90;;;;;;4442223;28;658238;-70
2023/01/17 07:28:00;;;;;;;14.03;7.13;;;1.30;99.90;;;;;;4443279;28;657324;-69
2023/01/17 07:30:47;;;;;;;17.60;9.13;;;1.30;99.90;;;;;;4438424;28;656509;-70
2023/01/17 07:33:35;;;;;;;12.77;7.27;;;1.40;99.90;;;;;;4427337;28;656155;-70
2023/01/17 07:36:24;;;;;;;16.77;7.87;;;1.40;99.90;;;;;;4436346;28;657452;-71
2023/01/17 07:39:11;;;;;;;16.43;8.67;;;1.40;99.90;;;;;;4422370;28;656980;-70
2023/01/17 07:41:58;;;;;;;22.63;10.57;;;1.40;99.90;;;;;;4438524;28;657537;-71
2023/01/17 07:44:45;;;;;;;20.47;10.30;;;1.40;99.90;;;;;;4426674;28;657659;-71
2023/01/17 07:47:33;;;;;;;25.90;11.33;;;1.50;99.90;;;;;;4436532;28;657709;-71
2023/01/17 07:50:20;;;;;;;18.27;10.23;;;1.50;99.90;;;;;;4420334;28;657624;-71
2023/01/17 07:53:09;;;;;;;20.03;9.90;;;1.50;99.90;;;;;;4443758;28;658405;-71
2023/01/17 07:56:00;;;;;;;15.65;8.48;;;1.60;99.90;;;;;;4420368;28;656548;-72
2023/01/17 07:58:47;;;;;;;11.30;6.33;;;1.60;99.90;;;;;;4415811;28;657741;-71
2023/01/17 08:01:34;;;;;;;17.13;8.87;;;1.60;99.90;;;;;;4439710;28;656459;-70
2023/01/17 08:04:21;;;;;;;16.13;8.37;;;1.60;99.90;;;;;;4417489;28;656473;-70
2023/01/17 08:07:09;;;;;;;14.70;7.47;;;1.70;99.90;;;;;;4441961;28;656508;-70
2023/01/17 08:09:59;;;;;;;14.27;7.63;;;1.80;99.90;;;;;;4419317;28;656925;-71
2023/01/17 08:12:47;;;;;;;12.87;7.20;;;1.80;99.90;;;;;;4412916;28;657328;-70
2023/01/17 08:15:34;;;;;;;12.27;7.20;;;1.80;99.90;;;;;;4444181;28;655917;-70
2023/01/17 08:18:21;;;;;;;13.17;7.03;;;1.80;99.90;;;;;;4417369;28;656481;-71
2023/01/17 08:21:12;;;;;;;18.23;8.80;;;1.90;99.90;;;;;;4436396;28;656620;-71
2023/01/17 08:23:59;;;;;;;19.13;8.87;;;2.10;99.90;;;;;;4416416;28;656804;-71
2023/01/17 08:26:48;;;;;;;17.57;8.87;;;2.20;99.90;;;;;;4420188;28;657809;-71
2023/01/17 08:29:35;;;;;;;15.93;8.33;;;2.20;99.90;;;;;;4419671;28;656593;-71
2023/01/17 08:32:23;;;;;;;14.83;7.70;;;2.30;99.90;;;;;;4438888;28;657079;-71
2023/01/17 08:35:10;;;;;;;13.87;6.37;;;2.40;99.90;;;;;;4427851;28;656525;-72
2023/01/17 08:38:03;;;;;;;17.30;8.23;;;2.40;99.90;;;;;;4444252;28;657915;-71
2023/01/17 08:40:50;;;;;;;19.02;8.73;;;2.40;99.90;;;;;;4395645;28;657170;-72
2023/01/17 08:43:39;;;;;;;16.53;9.33;;;2.50;99.90;;;;;;4443735;28;657684;-72
2023/01/17 08:46:26;;;;;;;13.05;7.13;;;2.50;99.90;;;;;;4417080;28;656424;-72
2023/01/17 08:49:13;;;;;;;18.70;9.33;;;2.40;99.90;;;;;;4445510;28;656849;-72
2023/01/17 08:52:01;;;;;;;21.40;10.40;;;2.50;99.90;;;;;;4419440;28;656954;-71
2023/01/17 08:54:48;;;;;;;19.50;10.50;;;2.60;99.90;;;;;;4437379;28;657912;-72
2023/01/17 08:57:35;;;;;;;19.67;10.63;;;2.70;99.90;;;;;;4406544;28;657437;-72
2023/01/17 09:00:25;;;;;;;18.30;10.00;;;2.80;99.90;;;;;;4431044;28;658890;-72
2023/01/17 09:03:13;;;;;;;22.17;11.23;;;2.90;99.90;;;;;;4411054;28;657907;-72
2023/01/17 09:06:01;;;;;;;20.05;11.15;;;2.90;99.90;;;;;;4421341;28;657273;-72
2023/01/17 09:08:53;;;;;;;18.63;9.93;;;3.00;99.90;;;;;;4441000;28;657938;-72
2023/01/17 09:11:40;;;;;;;16.17;8.73;;;3.00;99.90;;;;;;4395372;28;656478;-72
2023/01/17 09:14:28;;;;;;;20.87;10.40;;;3.00;99.90;;;;;;4434406;28;658007;-72
2023/01/17 09:17:17;;;;;;;29.60;13.37;;;3.10;99.90;;;;;;4431972;28;658044;-72
2023/01/17 09:20:04;;;;;;;28.67;14.10;;;3.10;99.90;;;;;;4443420;28;656801;-71
2023/01/17 09:22:52;;;;;;;25.40;12.73;;;3.20;99.90;;;;;;4424272;28;657609;-71
2023/01/17 09:25:43;;;;;;;32.13;14.03;;;3.10;99.90;;;;;;4441854;28;657266;-73
2023/01/17 09:28:30;;;;;;;30.67;15.40;;;3.00;99.90;;;;;;4386748;28;658505;-71
2023/01/17 09:31:19;;;;;;;27.70;13.07;;;3.00;99.90;;;;;;4433134;28;659042;-72
2023/01/17 09:34:08;;;;;;;31.30;15.40;;;3.10;99.90;;;;;;4418928;28;657753;-72
2023/01/17 09:36:56;;;;;;;29.88;14.90;;;3.20;99.90;;;;;;4418534;28;657769;-72
2023/01/17 09:39:43;;;;;;;27.43;15.53;;;3.20;99.90;;;;;;4439153;28;659073;-72
2023/01/17 09:42:32;;;;;;;33.67;16.67;;;3.20;99.90;;;;;;4419756;28;657945;-71
2023/01/17 09:45:20;;;;;;;28.23;15.20;;;3.30;99.90;;;;;;4434660;28;658038;-72
2023/01/17 09:48:10;;;;;;;34.20;16.50;;;3.40;99.90;;;;;;4433256;28;658688;-72
2023/01/17 09:50:59;;;;;;;31.90;16.80;;;3.40;99.90;;;;;;4414326;28;658054;-72
2023/01/17 09:53:47;;;;;;;34.13;16.40;;;3.60;99.90;;;;;;4419382;28;657682;-72
2023/01/17 09:56:36;;;;;;;35.13;17.17;;;3.60;99.90;;;;;;4438205;28;657755;-73
2023/01/17 09:59:27;;;;;;;33.53;17.17;;;3.70;99.90;;;;;;4418510;28;658644;-72
2023/01/17 10:02:39;;;;;;;36.72;17.08;;;3.90;99.90;;;;;;4416030;28;657985;-72
2023/01/17 10:05:32;;;;;;;33.07;18.40;;;4.10;99.90;;;;;;4393416;28;657877;-72
2023/01/17 10:08:27;;;;;;;37.37;17.73;;;4.00;99.90;;;;;;4418586;28;657874;-71
2023/01/17 10:11:43;;;;;;;40.00;21.10;;;4.20;99.90;;;;;;4435174;28;657633;-72
2023/01/17 10:14:43;;;;;;;36.33;18.27;;;4.40;99.90;;;;;;4398993;28;657966;-71
2023/01/17 10:17:36;;;;;;;31.50;17.00;;;4.50;99.90;;;;;;4399174;28;658393;-71
2023/01/17 10:20:42;;;;;;;37.63;18.13;;;4.80;99.90;;;;;;4412649;28;657790;-72
2023/01/17 10:23:44;;;;;;;36.67;17.40;;;5.00;99.90;;;;;;4246298;28;657432;-71
2023/01/17 10:26:32;;;;;;;36.50;17.97;;;5.10;99.90;;;;;;4239524;28;657179;-71
2023/01/17 10:29:19;;;;;;;35.07;17.67;;;5.20;99.90;;;;;;4387276;28;658823;-71
2023/01/17 10:32:08;;;;;;;35.87;17.13;;;4.80;99.90;;;;;;4414748;28;657555;-72
2023/01/17 10:34:56;;;;;;;33.40;16.27;;;4.80;99.90;;;;;;4417375;28;657836;-72
2023/01/17 10:37:44;;;;;;;38.27;18.00;;;4.60;99.90;;;;;;4437468;28;658749;-72
2023/01/17 10:40:39;;;;;;;35.30;16.80;;;4.60;99.90;;;;;;4412079;28;658331;-72
2023/01/17 10:43:29;;;;;;;34.93;15.80;;;4.60;99.90;;;;;;4409732;28;658265;-72
2023/01/17 10:46:19;;;;;;;39.63;19.37;;;4.60;99.90;;;;;;4414530;28;657728;-71
2023/01/17 10:49:08;;;;;;;34.67;16.00;;;5.10;99.90;;;;;;4416260;28;657589;-71
2023/01/17 10:52:11;;;;;;;34.03;17.80;;;5.60;99.90;;;;;;4422016;28;657735;-72
2023/01/17 10:55:09;;;;;;;32.80;18.07;;;6.00;99.90;;;;;;4411518;28;658088;-72
2023/01/17 10:57:57;;;;;;;32.50;16.40;;;6.60;99.90;;;;;;4418030;28;657408;-71
2023/01/17 11:00:47;;;;;;;29.73;16.37;;;7.60;99.90;;;;;;4431781;28;659639;-72
2023/01/17 11:03:35;;;;;;;35.33;16.53;;;8.20;99.90;;;;;;4434848;28;657608;-72
2023/01/17 11:06:23;;;;;;;30.20;16.57;;;8.40;99.90;;;;;;4437621;28;658345;-72
2023/01/17 11:09:10;;;;;;;29.43;15.83;;;8.90;99.90;;;;;;4417095;28;657947;-71
2023/01/17 11:11:58;;;;;;;35.53;16.60;;;9.10;99.90;;;;;;4444103;28;658165;-71
2023/01/17 11:14:57;;;;;;;24.87;11.70;;;9.20;99.90;;;;;;4428109;28;657752;-70
2023/01/17 11:17:47;;;;;;;22.00;11.80;;;10.10;96.50;;;;;;4419536;28;659111;-71
2023/01/17 11:20:35;;;;;;;24.93;12.07;;;9.90;98.30;;;;;;4415515;28;658523;-70
2023/01/17 11:23:24;;;;;;;16.40;9.43;;;9.90;97.50;;;;;;4416691;28;658388;-71
2023/01/17 11:26:12;;;;;;;22.07;10.00;;;9.60;96.00;;;;;;4418674;28;656363;-71
2023/01/17 11:29:13;;;;;;;18.13;9.70;;;9.90;95.20;;;;;;4436751;28;657771;-71
2023/01/17 11:32:29;;;;;;;16.57;8.60;;;10.40;93.10;;;;;;4397988;28;656693;-71
2023/01/17 11:35:19;;;;;;;17.07;8.20;;;10.90;87.60;;;;;;4415259;28;657518;-71
2023/01/17 11:38:07;;;;;;;17.20;8.70;;;9.30;93.00;;;;;;4421387;28;657753;-71
2023/01/17 11:41:18;;;;;;;16.03;8.63;;;9.80;92.10;;;;;;4445773;28;656786;-72
2023/01/17 11:44:01;;;;;;;13.23;6.50;;;10.10;85.40;;;;;;4395923;28;657560;-71
2023/01/17 11:46:49;;;;;;;16.80;8.43;;;10.40;86.70;;;;;;4436864;28;657675;-71
2023/01/17 11:49:37;;;;;;;17.37;8.67;;;9.70;90.90;;;;;;4422056;28;658236;-71
2023/01/17 11:52:26;;;;;;;20.20;9.20;;;9.10;91.50;;;;;;4441843;28;656327;-71
2023/01/17 11:55:14;;;;;;;15.63;8.40;;;8.40;91.90;;;;;;4440124;28;656980;-71
2023/01/17 11:58:02;;;;;;;18.47;7.43;;;8.20;95.00;;;;;;4421157;28;657670;-73
2023/01/17 12:00:50;;;;;;;25.03;10.10;;;8.30;95.80;;;;;;4445164;28;656766;-71
2023/01/17 12:04:01;;;;;;;22.87;9.27;;;8.80;98.00;;;;;;4417998;28;657832;-71
2023/01/17 12:06:56;;;;;;;16.53;7.60;;;9.40;93.80;;;;;;4421990;28;657110;-71
2023/01/17 12:09:47;;;;;;;17.80;8.87;;;10.80;90.00;;;;;;4419455;28;657243;-71
2023/01/17 12:15:53;;;;;;;6.90;3.57;;;10.60;86.80;;;;;;4393370;28;658218;-74
2023/01/17 12:18:42;;;;;;;9.93;4.30;;;9.90;80.40;;;;;;4394080;28;656849;-74
2023/01/17 12:21:35;;;;;;;8.50;3.97;;;10.20;78.50;;;;;;4442291;28;654699;-74
2023/01/17 12:24:31;;;;;;;5.97;3.13;;;10.10;76.80;;;;;;4394349;28;656566;-74
2023/01/17 12:27:22;;;;;;;7.17;2.93;;;10.20;72.10;;;;;;4415351;28;656634;-74
2023/01/17 12:30:22;;;;;;;4.63;2.37;;;9.90;75.60;;;;;;4414250;28;656111;-74
2023/01/17 12:33:17;;;;;;;5.10;2.73;;;10.50;68.80;;;;;;4416660;28;655804;-74
2023/01/17 12:36:16;;;;;;;6.10;2.73;;;10.50;68.00;;;;;;4408424;28;656992;-74
2023/01/17 12:39:06;;;;;;;6.07;2.70;;;11.10;66.20;;;;;;4410525;28;657106;-73
2023/01/17 12:41:59;;;;;;;4.40;2.50;;;10.70;64.00;;;;;;4423717;28;657210;-73
2023/01/17 12:44:51;;;;;;;5.03;2.50;;;9.50;71.90;;;;;;4421079;28;656726;-73
2023/01/17 12:47:41;;;;;;;4.40;2.33;;;11.20;64.20;;;;;;4429496;28;655356;-72
2023/01/17 12:50:32;;;;;;;5.53;2.50;;;10.70;61.80;;;;;;4418133;28;656733;-73
2023/01/17 12:53:24;;;;;;;8.10;3.33;;;11.40;62.10;;;;;;4419135;28;656606;-73
2023/01/17 12:56:14;;;;;;;6.33;3.03;;;11.00;62.80;;;;;;4427099;28;656891;-74
2023/01/17 12:59:06;;;;;;;7.23;2.90;;;10.80;64.90;;;;;;4412966;28;656522;-73
2023/01/17 13:01:56;;;;;;;6.73;3.33;;;10.10;68.90;;;;;;4420934;28;657339;-73
2023/01/17 13:04:46;;;;;;;4.93;2.43;;;10.30;66.80;;;;;;4414082;28;657422;-73
2023/01/17 13:07:39;;;;;;;4.80;2.77;;;11.00;67.20;;;;;;4414609;28;657069;-73
2023/01/17 13:10:31;;;;;;;5.63;2.90;;;11.60;64.30;;;;;;4418167;28;656577;-73
2023/01/17 13:13:21;;;;;;;8.48;3.30;;;12.60;62.10;;;;;;4414377;28;657343;-73
2023/01/17 13:16:12;;;;;;;5.83;2.60;;;12.50;61.30;;;;;;4404902;28;657665;-73
2023/01/17 13:19:02;;;;;;;5.40;2.67;;;12.20;59.40;;;;;;4414298;28;656933;-73
2023/01/17 13:21:50;;;;;;;6.30;2.90;;;12.70;58.10;;;;;;4421837;28;656936;-73
2023/01/17 13:24:42;;;;;;;4.77;2.90;;;11.70;56.60;;;;;;4426992;28;657385;-73
2023/01/17 13:27:38;;;;;;;7.93;2.90;;;11.10;60.20;;;;;;4412375;28;657284;-73
2023/01/17 13:30:36;;;;;;;4.67;2.77;;;10.70;60.80;;;;;;4409372;28;657031;-73
2023/01/17 13:33:40;;;;;;;6.07;2.50;;;11.40;59.60;;;;;;4408477;28;656925;-73
2023/01/17 13:36:37;;;;;;;6.73;2.80;;;10.50;61.60;;;;;;4392702;28;656879;-72
2023/01/17 13:39:39;;;;;;;8.97;3.43;;;10.60;62.30;;;;;;4412780;28;656639;-72
2023/01/17 13:42:30;;;;;;;7.37;3.50;;;10.80;62.20;;;;;;4417621;28;656621;-73
2023/01/17 13:45:18;;;;;;;9.20;3.57;;;11.20;61.80;;;;;;4418264;28;656571;-72
2023/01/17 13:48:26;;;;;;;6.17;3.33;;;11.60;59.80;;;;;;4412269;28;656521;-72
2023/01/17 13:51:14;;;;;;;7.97;4.07;;;11.50;60.30;;;;;;4413302;28;656186;-72
2023/01/17 13:54:01;;;;;;;8.17;4.20;;;11.80;60.60;;;;;;4414665;28;656530;-72
2023/01/17 13:56:48;;;;;;;7.23;3.77;;;12.60;57.00;;;;;;4443782;28;657763;-72
2023/01/17 13:59:36;;;;;;;7.30;3.90;;;12.30;56.70;;;;;;4417341;28;656533;-72
2023/01/17 14:02:36;;;;;;;8.00;3.67;;;12.40;56.20;;;;;;4440698;28;656623;-72
2023/01/17 14:05:42;;;;;;;8.57;3.53;;;12.40;56.50;;;;;;4408364;28;657023;-72
2023/01/17 14:08:30;;;;;;;8.37;3.53;;;12.40;56.40;;;;;;4425754;28;656529;-72
2023/01/17 14:11:18;;;;;;;11.80;4.17;;;12.60;56.20;;;;;;4435109;28;657392;-72
2023/01/17 14:14:35;;;;;;;7.23;3.40;;;11.30;56.70;;;;;;4432149;28;657778;-72
2023/01/17 14:17:50;;;;;;;8.60;3.90;;;11.20;58.40;;;;;;4412912;28;656960;-72
2023/01/17 14:21:04;;;;;;;7.43;3.80;;;11.20;59.10;;;;;;4408021;28;657317;-71
2023/01/17 14:24:02;;;;;;;5.67;3.30;;;10.30;60.00;;;;;;4415430;28;656557;-71
2023/01/17 14:26:52;;;;;;;6.73;3.50;;;10.10;62.00;;;;;;4417209;28;656942;-71
2023/01/17 14:29:52;;;;;;;8.77;3.63;;;9.90;64.80;;;;;;4415048;28;656525;-71
2023/01/17 14:32:39;;;;;;;6.53;3.10;;;9.80;64.70;;;;;;4412907;28;655741;-71
2023/01/17 14:35:31;;;;;;;9.48;3.95;;;9.00;66.30;;;;;;4421127;28;655993;-70
2023/01/17 14:38:22;;;;;;;8.10;3.53;;;8.40;68.40;;;;;;4409932;28;655946;-71
2023/01/17 14:41:11;;;;;;;10.37;4.20;;;7.60;73.30;;;;;;4405255;28;657161;-71
2023/01/17 14:43:58;;;;;;;7.67;3.80;;;7.30;75.40;;;;;;4403968;28;656724;-71
2023/01/17 14:46:47;;;;;;;8.77;4.07;;;6.90;79.00;;;;;;4409118;28;655420;-71
2023/01/17 14:49:34;;;;;;;9.40;3.80;;;6.70;82.00;;;;;;4430141;28;655663;-71
2023/01/17 14:52:22;;;;;;;9.23;3.70;;;6.50;86.60;;;;;;4409177;28;655583;-71
2023/01/17 14:55:16;;;;;;;8.90;3.87;;;6.20;90.30;;;;;;4439579;28;655757;-71
2023/01/17 14:58:03;;;;;;;8.93;3.40;;;6.00;92.30;;;;;;4405624;28;655421;-71
2023/01/17 15:00:51;;;;;;;10.00;4.03;;;5.80;95.60;;;;;;4409415;28;655668;-71
2023/01/17 15:03:43;;;;;;;9.17;4.70;;;5.60;99.00;;;;;;4427063;28;656900;-71
2023/01/17 15:06:33;;;;;;;12.77;4.43;;;5.30;99.90;;;;;;4395102;28;655701;-71
2023/01/17 15:09:21;;;;;;;10.97;4.40;;;5.10;99.90;;;;;;4411040;28;656484;-71
2023/01/17 15:12:10;;;;;;;10.33;4.20;;;5.00;99.90;;;;;;4435034;28;656792;-71
2023/01/17 15:14:58;;;;;;;7.80;4.23;;;4.90;99.90;;;;;;4413249;28;657679;-71
2023/01/17 15:17:45;;;;;;;10.45;4.60;;;4.80;99.90;;;;;;4414350;28;655848;-71
2023/01/17 15:20:32;;;;;;;12.07;5.30;;;4.70;99.90;;;;;;4439406;28;657468;-71
2023/01/17 15:23:21;;;;;;;12.87;4.17;;;4.50;99.90;;;;;;4424996;28;657260;-71
2023/01/17 15:26:09;;;;;;;8.50;3.80;;;4.40;99.90;;;;;;4438074;28;657262;-71
2023/01/17 15:29:02;;;;;;;8.03;4.13;;;4.40;99.90;;;;;;4412941;28;655229;-71
2023/01/17 15:31:50;;;;;;;8.53;3.93;;;4.20;99.90;;;;;;4406743;28;656282;-71
2023/01/17 15:34:37;;;;;;;9.60;3.90;;;4.10;99.90;;;;;;4417775;28;656357;-71
2023/01/17 15:37:28;;;;;;;11.50;4.37;;;4.00;99.90;;;;;;4423969;28;656255;-71
2023/01/17 15:40:17;;;;;;;9.67;4.80;;;3.90;99.90;;;;;;4408883;28;656564;-71
2023/01/17 15:43:05;;;;;;;11.73;4.30;;;3.80;99.90;;;;;;4427667;28;655119;-71
2023/01/17 15:45:57;;;;;;;11.17;5.00;;;3.70;99.90;;;;;;4407479;28;657125;-71
2023/01/17 15:48:44;;;;;;;12.97;5.40;;;3.60;99.90;;;;;;4412161;28;656248;-71
2023/01/17 15:51:32;;;;;;;27.20;11.83;;;3.50;99.90;;;;;;4416284;28;656366;-71